Time;durP1;ratioP1;P1;durP2;ratioP2;P2;SDS_P1;SDS_P2;PMS_P1;PMS_P2;Temp;Humidity;BMP_temperature;BMP_pressure;BME280_temperature;BME280_humidity;BME280_pressure;Samples;Min_cycle;Max_cycle;Signal;HPM_P1;HPM_P2
2021/06/14 00:00:23;;;;;;;6.13;4.95;;;18.90;87.80;;;;;;5072114;28;20078;-71
2021/06/14 00:02:50;;;;;;;5.50;4.13;;;18.90;87.90;;;;;;5073232;28;20025;-71
2021/06/14 00:05:27;;;;;;;5.57;5.00;;;18.90;88.00;;;;;;5073309;28;20029;-72
2021/06/14 00:07:53;;;;;;;5.65;4.60;;;18.90;88.20;;;;;;5073271;28;20029;-72
2021/06/14 00:10:19;;;;;;;6.80;4.90;;;18.80;88.30;;;;;;5073502;28;20471;-71
2021/06/14 00:12:45;;;;;;;7.07;5.50;;;18.80;88.50;;;;;;5073112;28;20029;-71
2021/06/14 00:15:11;;;;;;;7.53;4.65;;;18.80;88.80;;;;;;5075474;28;20036;-71
2021/06/14 00:17:37;;;;;;;6.70;4.88;;;18.80;89.00;;;;;;5076986;28;20028;-72
2021/06/14 00:20:07;;;;;;;6.68;5.28;;;18.80;89.10;;;;;;5077216;28;20047;-71
2021/06/14 00:22:33;;;;;;;7.20;5.38;;;18.80;89.30;;;;;;5076876;28;20032;-72
2021/06/14 00:24:59;;;;;;;6.60;5.20;;;18.80;89.40;;;;;;5076815;28;20020;-71
2021/06/14 00:27:24;;;;;;;5.40;4.88;;;18.80;89.60;;;;;;5077148;28;20103;-70
2021/06/14 00:29:50;;;;;;;5.45;4.88;;;18.80;89.80;;;;;;5076617;28;20038;-71
2021/06/14 00:32:16;;;;;;;6.40;5.15;;;18.70;89.80;;;;;;5076841;28;20062;-71
2021/06/14 00:34:42;;;;;;;5.30;4.78;;;18.70;89.90;;;;;;5077080;28;20032;-71
2021/06/14 00:37:07;;;;;;;6.22;5.63;;;18.70;90.00;;;;;;5077057;28;20036;-71
2021/06/14 00:39:33;;;;;;;8.15;5.65;;;18.70;90.00;;;;;;5076956;28;20032;-74
2021/06/14 00:41:59;;;;;;;6.25;4.95;;;18.70;90.10;;;;;;5076694;28;20028;-71
2021/06/14 00:44:25;;;;;;;5.88;4.97;;;18.60;90.10;;;;;;5076909;28;20082;-71
2021/06/14 00:46:50;;;;;;;10.15;5.35;;;18.70;90.20;;;;;;5076120;28;20486;-71
2021/06/14 00:49:16;;;;;;;6.15;5.10;;;18.70;90.20;;;;;;5076620;28;20036;-71
2021/06/14 00:51:42;;;;;;;5.38;4.88;;;18.60;90.30;;;;;;5076486;28;20078;-71
2021/06/14 00:54:08;;;;;;;6.30;5.40;;;18.60;90.30;;;;;;5076651;28;20032;-71
2021/06/14 00:56:34;;;;;;;6.70;5.45;;;18.60;90.30;;;;;;5076282;28;20051;-80
2021/06/14 00:58:59;;;;;;;7.25;5.20;;;18.60;90.40;;;;;;5076464;28;20035;-71
2021/06/14 01:01:25;;;;;;;5.97;5.10;;;18.60;90.40;;;;;;5076267;28;20021;-71
2021/06/14 01:03:51;;;;;;;7.60;5.80;;;18.60;90.40;;;;;;5076259;28;20099;-71
2021/06/14 01:06:17;;;;;;;7.65;5.60;;;18.60;90.50;;;;;;5076324;28;20033;-72
2021/06/14 01:08:47;;;;;;;8.13;5.93;;;18.60;90.50;;;;;;5076149;28;20033;-72
2021/06/14 01:11:42;;;;;;;7.10;5.35;;;18.60;90.60;;;;;;5076315;28;20107;-71
2021/06/14 01:14:26;;;;;;;8.50;5.70;;;18.60;90.60;;;;;;5075458;28;20123;-71
2021/06/14 01:17:13;;;;;;;6.85;5.25;;;18.60;90.70;;;;;;5076535;28;20036;-72
2021/06/14 01:20:14;;;;;;;6.10;5.50;;;18.60;90.70;;;;;;5075901;28;20090;-72
2021/06/14 01:23:01;;;;;;;7.95;5.60;;;18.50;90.70;;;;;;5076196;28;20033;-72
2021/06/14 01:25:50;;;;;;;9.48;5.63;;;18.50;90.90;;;;;;5075511;28;20032;-71
2021/06/14 01:28:19;;;;;;;7.68;6.00;;;18.60;91.00;;;;;;5091531;28;20428;-71
2021/06/14 01:30:47;;;;;;;8.40;5.53;;;18.60;91.30;;;;;;5091361;28;20028;-72
2021/06/14 01:33:16;;;;;;;5.47;4.97;;;18.60;91.50;;;;;;5075840;28;20024;-71
2021/06/14 01:35:49;;;;;;;5.65;5.07;;;18.70;91.60;;;;;;5075773;28;20092;-71
2021/06/14 01:38:16;;;;;;;7.32;6.07;;;18.80;91.50;;;;;;5075641;28;20024;-71
2021/06/14 01:40:42;;;;;;;5.72;5.15;;;18.80;91.30;;;;;;5075906;28;20024;-71
2021/06/14 01:43:15;;;;;;;6.65;5.13;;;18.80;91.20;;;;;;5075586;28;20036;-71
2021/06/14 01:45:46;;;;;;;7.20;5.18;;;18.80;91.20;;;;;;5075458;28;20020;-72
2021/06/14 01:48:13;;;;;;;7.43;5.25;;;18.80;91.20;;;;;;5075459;28;20025;-71
2021/06/14 01:50:39;;;;;;;6.47;5.38;;;18.80;91.20;;;;;;5075698;28;20371;-72
2021/06/14 01:53:06;;;;;;;5.93;5.40;;;18.80;91.30;;;;;;5075420;28;20020;-73
2021/06/14 01:55:33;;;;;;;6.20;4.97;;;18.80;91.40;;;;;;5075438;28;20543;-71
2021/06/14 01:57:59;;;;;;;6.07;4.72;;;18.90;91.50;;;;;;5075181;28;20032;-72
2021/06/14 02:00:26;;;;;;;5.32;4.75;;;18.90;91.50;;;;;;5075403;28;20455;-71
2021/06/14 02:02:52;;;;;;;4.93;4.43;;;19.00;91.30;;;;;;5075495;28;20024;-72
2021/06/14 02:05:22;;;;;;;5.28;4.78;;;19.00;91.10;;;;;;5075299;28;20029;-72
2021/06/14 02:07:49;;;;;;;5.80;4.95;;;19.00;91.00;;;;;;5074896;28;20025;-72
2021/06/14 02:10:15;;;;;;;4.93;4.30;;;19.00;90.90;;;;;;5075107;28;20032;-71
2021/06/14 02:12:43;;;;;;;5.53;4.53;;;19.00;90.90;;;;;;5074975;28;20074;-72
2021/06/14 02:15:10;;;;;;;5.07;4.55;;;19.00;90.90;;;;;;5075008;28;20409;-72
2021/06/14 02:17:40;;;;;;;8.82;5.07;;;19.00;91.00;;;;;;5074901;28;20036;-71
2021/06/14 02:20:07;;;;;;;5.93;5.25;;;19.00;91.00;;;;;;5075067;28;20029;-72
2021/06/14 02:22:35;;;;;;;8.15;5.35;;;19.00;90.90;;;;;;5074714;28;20051;-72
2021/06/14 02:25:02;;;;;;;7.18;4.80;;;19.00;90.90;;;;;;5074631;28;20025;-72
2021/06/14 02:27:28;;;;;;;5.95;4.70;;;19.00;90.90;;;;;;5074887;28;20063;-72
2021/06/14 02:29:54;;;;;;;5.82;4.88;;;19.00;91.00;;;;;;5074871;28;20060;-72
2021/06/14 02:32:19;;;;;;;5.50;4.95;;;19.10;91.00;;;;;;5074656;28;20029;-72
2021/06/14 02:34:46;;;;;;;5.47;4.90;;;19.10;91.00;;;;;;5074381;28;20035;-72
2021/06/14 02:37:13;;;;;;;6.68;4.57;;;19.20;91.00;;;;;;5074414;28;20107;-72
2021/06/14 02:39:39;;;;;;;5.20;4.30;;;19.20;90.90;;;;;;5074450;28;20021;-72
2021/06/14 02:42:06;;;;;;;4.43;4.00;;;19.20;90.60;;;;;;5074376;28;20032;-72
2021/06/14 02:44:32;;;;;;;5.72;4.22;;;19.30;90.40;;;;;;5074610;28;20036;-71
2021/06/14 02:47:04;;;;;;;6.10;4.03;;;19.30;90.40;;;;;;5074168;28;20105;-72
2021/06/14 02:49:31;;;;;;;5.53;4.47;;;19.30;90.40;;;;;;5074346;28;20093;-72
2021/06/14 02:51:58;;;;;;;4.55;4.03;;;19.40;90.40;;;;;;5073903;28;20035;-72
2021/06/14 02:54:29;;;;;;;4.38;3.97;;;19.40;90.20;;;;;;5074248;28;20538;-72
2021/06/14 02:56:59;;;;;;;4.82;4.32;;;19.50;90.10;;;;;;5074048;28;20048;-72
2021/06/14 02:59:27;;;;;;;5.75;4.22;;;19.50;89.80;;;;;;5074116;28;20056;-72
2021/06/14 03:01:54;;;;;;;6.85;4.32;;;19.50;89.50;;;;;;5064500;28;20024;-72
2021/06/14 03:04:20;;;;;;;6.45;4.22;;;19.50;89.30;;;;;;5053714;28;20033;-71
2021/06/14 03:06:50;;;;;;;5.03;4.53;;;19.60;89.20;;;;;;5053624;28;20028;-72
2021/06/14 03:09:16;;;;;;;4.90;4.38;;;19.60;88.90;;;;;;5054024;28;20029;-72
2021/06/14 03:11:44;;;;;;;4.70;4.20;;;19.60;88.80;;;;;;5053932;28;20017;-72
2021/06/14 03:14:15;;;;;;;4.68;4.28;;;19.60;88.60;;;;;;5054253;28;20111;-71
2021/06/14 03:16:45;;;;;;;4.53;4.07;;;19.70;88.60;;;;;;5053818;28;20036;-71
2021/06/14 03:19:13;;;;;;;4.40;4.00;;;19.70;88.40;;;;;;5053817;28;20017;-71
2021/06/14 03:21:40;;;;;;;5.18;3.80;;;19.70;88.50;;;;;;5053832;28;20021;-71
2021/06/14 03:24:07;;;;;;;4.40;4.00;;;19.80;88.50;;;;;;5053599;28;20030;-71
2021/06/14 03:26:40;;;;;;;6.97;4.35;;;19.90;88.30;;;;;;5058848;28;20024;-72
2021/06/14 03:29:08;;;;;;;4.32;3.90;;;19.90;88.10;;;;;;5093692;28;20059;-72
2021/06/14 03:31:35;;;;;;;4.70;4.30;;;20.00;88.30;;;;;;5094179;28;20028;-72
2021/06/14 03:34:01;;;;;;;4.95;4.10;;;20.00;87.90;;;;;;5093282;28;20386;-71
2021/06/14 03:36:31;;;;;;;6.55;4.40;;;20.10;87.70;;;;;;5088776;28;20032;-72
2021/06/14 03:38:58;;;;;;;5.25;4.38;;;20.10;87.70;;;;;;5088099;28;20031;-71
2021/06/14 03:41:24;;;;;;;6.38;4.50;;;20.20;88.00;;;;;;5093845;28;20028;-72
2021/06/14 03:43:50;;;;;;;4.50;4.10;;;20.30;88.00;;;;;;5093570;28;20031;-72
2021/06/14 03:46:17;;;;;;;4.65;4.25;;;20.40;87.70;;;;;;5093744;28;20086;-72
2021/06/14 03:48:44;;;;;;;6.25;4.50;;;20.50;87.50;;;;;;5092669;28;20107;-72
2021/06/14 03:51:10;;;;;;;5.80;4.18;;;20.60;87.20;;;;;;5093401;28;20024;-72
2021/06/14 03:53:36;;;;;;;5.07;4.57;;;20.70;86.90;;;;;;5093410;28;20535;-72
2021/06/14 03:56:05;;;;;;;5.38;4.70;;;20.90;86.50;;;;;;5093389;28;20084;-72
2021/06/14 03:58:32;;;;;;;5.05;4.55;;;21.00;86.00;;;;;;5093282;28;20077;-72
2021/06/14 04:00:58;;;;;;;5.05;4.30;;;21.00;85.40;;;;;;5093382;28;20035;-72
2021/06/14 04:03:27;;;;;;;7.22;4.60;;;21.10;84.80;;;;;;5093178;28;20115;-72
2021/06/14 04:05:58;;;;;;;5.68;4.40;;;21.10;84.40;;;;;;5079335;28;20385;-71
2021/06/14 04:08:23;;;;;;;6.78;4.68;;;21.20;83.90;;;;;;5073201;28;20090;-72
2021/06/14 04:10:49;;;;;;;7.47;5.10;;;21.30;83.70;;;;;;5073327;28;20068;-72
2021/06/14 04:13:15;;;;;;;4.85;4.25;;;21.30;83.30;;;;;;5083622;28;20024;-71
2021/06/14 04:15:41;;;;;;;7.15;4.78;;;21.40;83.00;;;;;;5093227;28;20031;-70
2021/06/14 04:18:07;;;;;;;5.18;4.68;;;21.50;82.70;;;;;;5092972;28;20078;-72
2021/06/14 04:20:32;;;;;;;6.82;4.97;;;21.50;82.20;;;;;;5093291;28;20382;-72
2021/06/14 04:22:58;;;;;;;5.75;4.97;;;21.60;81.90;;;;;;5093287;28;20035;-73
2021/06/14 04:25:25;;;;;;;8.45;5.07;;;21.60;81.50;;;;;;5093449;28;20417;-72
2021/06/14 04:27:50;;;;;;;5.13;4.57;;;21.60;81.20;;;;;;5092809;28;20024;-72
2021/06/14 04:30:18;;;;;;;8.65;4.70;;;21.70;80.90;;;;;;5074103;28;20029;-72
2021/06/14 04:32:44;;;;;;;5.40;4.63;;;21.70;80.50;;;;;;5072572;28;20090;-71
2021/06/14 04:35:11;;;;;;;5.95;4.85;;;21.70;80.40;;;;;;5072724;28;20094;-72
2021/06/14 04:37:37;;;;;;;8.20;5.10;;;21.80;80.30;;;;;;5063777;28;20021;-71
2021/06/14 04:40:05;;;;;;;6.18;5.35;;;21.70;80.10;;;;;;5063870;28;20020;-73
2021/06/14 04:42:31;;;;;;;8.43;5.47;;;21.70;80.20;;;;;;5062310;28;20060;-71
2021/06/14 04:44:56;;;;;;;8.55;5.15;;;21.70;80.00;;;;;;5061884;28;20028;-72
2021/06/14 04:47:22;;;;;;;7.43;5.60;;;21.80;79.90;;;;;;5062945;28;20378;-72
2021/06/14 04:49:48;;;;;;;7.15;5.50;;;21.80;80.00;;;;;;5060350;28;20064;-71
2021/06/14 04:52:14;;;;;;;6.43;5.25;;;21.80;80.20;;;;;;5051494;28;20025;-72
2021/06/14 04:54:40;;;;;;;6.20;5.57;;;21.90;80.10;;;;;;5052696;28;20080;-72
2021/06/14 04:57:07;;;;;;;8.45;5.65;;;22.00;79.60;;;;;;5052561;28;20391;-72
2021/06/14 04:59:32;;;;;;;8.07;5.85;;;22.00;79.30;;;;;;5052737;28;20493;-72
2021/06/14 05:01:58;;;;;;;8.48;6.32;;;22.00;79.20;;;;;;5055927;28;20025;-71
2021/06/14 05:04:24;;;;;;;8.10;6.25;;;22.10;79.00;;;;;;5056217;28;20120;-71
2021/06/14 05:06:50;;;;;;;7.03;6.32;;;22.00;79.10;;;;;;5055985;28;20481;-82
2021/06/14 05:09:15;;;;;;;8.30;6.15;;;22.10;79.20;;;;;;5054919;28;20056;-72
2021/06/14 05:11:41;;;;;;;8.32;6.38;;;22.10;79.00;;;;;;5056122;28;20052;-72
2021/06/14 05:14:07;;;;;;;7.50;6.80;;;22.20;78.70;;;;;;5055964;28;20482;-71
2021/06/14 05:16:33;;;;;;;11.07;7.10;;;22.20;78.70;;;;;;5055747;28;20059;-72
2021/06/14 05:18:58;;;;;;;10.52;7.35;;;22.20;78.90;;;;;;5056234;28;20029;-71
2021/06/14 05:21:25;;;;;;;11.27;10.00;;;22.30;78.90;;;;;;5055733;28;20021;-72
2021/06/14 05:23:51;;;;;;;9.15;7.97;;;22.40;78.80;;;;;;5056010;28;20418;-71
2021/06/14 05:26:17;;;;;;;11.10;7.28;;;22.40;78.60;;;;;;5055787;28;20025;-73
2021/06/14 05:28:43;;;;;;;8.90;7.50;;;22.50;78.30;;;;;;5055780;28;20075;-73
2021/06/14 05:31:09;;;;;;;10.02;7.43;;;22.50;77.90;;;;;;5055537;28;20033;-72
2021/06/14 05:33:35;;;;;;;9.93;7.80;;;22.60;77.80;;;;;;5055734;28;20483;-72
2021/06/14 05:36:01;;;;;;;9.30;7.38;;;22.60;77.80;;;;;;5056014;28;20055;-72
2021/06/14 05:38:27;;;;;;;10.18;7.40;;;22.70;77.80;;;;;;5055698;28;20056;-72
2021/06/14 05:40:53;;;;;;;9.55;7.53;;;22.70;77.50;;;;;;5062791;28;20025;-74
2021/06/14 05:43:18;;;;;;;9.45;7.78;;;22.80;76.90;;;;;;5064855;28;20463;-72
2021/06/14 05:45:44;;;;;;;9.18;8.25;;;22.80;76.70;;;;;;5062805;28;20021;-73
2021/06/14 05:48:10;;;;;;;10.30;8.43;;;22.80;76.70;;;;;;5062769;28;20513;-75
2021/06/14 05:50:36;;;;;;;11.02;9.10;;;22.80;76.90;;;;;;5065342;28;20032;-73
2021/06/14 05:53:02;;;;;;;11.45;8.70;;;22.80;77.20;;;;;;5065031;28;20099;-74
2021/06/14 05:55:28;;;;;;;9.73;8.48;;;22.80;77.20;;;;;;5046703;28;20024;-72
2021/06/14 05:57:54;;;;;;;9.98;8.27;;;22.90;77.40;;;;;;5062792;28;20029;-72
2021/06/14 06:00:21;;;;;;;11.05;8.68;;;23.00;77.40;;;;;;5064062;28;20095;-76
2021/06/14 06:02:46;;;;;;;14.23;7.97;;;23.10;77.90;;;;;;5068684;28;20029;-73
2021/06/14 06:05:12;;;;;;;10.05;7.68;;;23.10;77.20;;;;;;5074947;28;20025;-72
2021/06/14 06:07:38;;;;;;;12.32;8.77;;;23.20;77.30;;;;;;5075028;28;20063;-72
2021/06/14 06:10:07;;;;;;;9.00;8.10;;;23.20;77.20;;;;;;5074492;28;20047;-71
2021/06/14 06:12:32;;;;;;;12.10;8.80;;;23.20;77.10;;;;;;5074443;28;20074;-71
2021/06/14 06:14:58;;;;;;;16.25;10.07;;;23.30;77.10;;;;;;5074868;28;20024;-72
2021/06/14 06:17:24;;;;;;;15.35;9.07;;;23.40;77.10;;;;;;5074836;28;20033;-73
2021/06/14 06:19:50;;;;;;;13.02;9.23;;;23.50;76.90;;;;;;5074987;28;20058;-72
2021/06/14 06:22:16;;;;;;;13.65;9.45;;;23.50;76.70;;;;;;5074691;28;20032;-72
2021/06/14 06:24:42;;;;;;;16.60;9.57;;;23.60;76.50;;;;;;5075012;28;20029;-72
2021/06/14 06:27:07;;;;;;;13.15;10.38;;;23.70;76.30;;;;;;5079253;28;20469;-72
2021/06/14 06:29:33;;;;;;;11.77;10.35;;;23.80;76.20;;;;;;5091369;28;20534;-72
2021/06/14 06:31:59;;;;;;;14.50;9.85;;;23.80;76.20;;;;;;5094265;28;20039;-72
2021/06/14 06:34:25;;;;;;;14.38;10.10;;;23.90;75.90;;;;;;5089726;28;20020;-73
2021/06/14 06:36:51;;;;;;;11.90;9.55;;;24.00;75.50;;;;;;5074208;28;20078;-72
2021/06/14 06:39:16;;;;;;;14.02;10.02;;;23.90;75.30;;;;;;5074127;28;20025;-72
2021/06/14 06:41:43;;;;;;;19.88;10.30;;;24.00;75.30;;;;;;5054658;28;20040;-73
2021/06/14 06:44:09;;;;;;;16.95;10.45;;;24.10;75.20;;;;;;5050965;28;20044;-72
2021/06/14 06:46:36;;;;;;;16.02;10.88;;;24.10;75.00;;;;;;5054248;28;20105;-72
2021/06/14 06:49:02;;;;;;;16.73;10.98;;;24.10;74.80;;;;;;5050046;28;20412;-73
2021/06/14 06:51:27;;;;;;;13.73;10.48;;;24.10;74.80;;;;;;5053792;28;20025;-72
2021/06/14 06:54:10;;;;;;;13.93;10.90;;;24.10;74.70;;;;;;5053424;28;20059;-76
2021/06/14 06:56:47;;;;;;;12.63;9.88;;;24.20;74.70;;;;;;5050150;28;20048;-73
2021/06/14 06:59:13;;;;;;;17.42;10.20;;;24.20;74.50;;;;;;5053490;28;20075;-72
2021/06/14 07:01:39;;;;;;;14.30;10.00;;;24.30;74.40;;;;;;5051609;28;20059;-73
2021/06/14 07:04:06;;;;;;;13.57;10.55;;;24.40;74.30;;;;;;5053238;28;20072;-73
2021/06/14 07:06:32;;;;;;;17.58;10.85;;;24.50;74.10;;;;;;5051083;28;20032;-76
2021/06/14 07:08:59;;;;;;;17.38;10.85;;;24.60;73.70;;;;;;5053656;28;20033;-72
2021/06/14 07:11:28;;;;;;;16.45;9.75;;;24.60;73.40;;;;;;5053275;28;20119;-72
2021/06/14 07:13:54;;;;;;;13.52;9.63;;;24.70;73.20;;;;;;5051391;28;20381;-71
2021/06/14 07:16:21;;;;;;;18.25;10.02;;;24.80;73.30;;;;;;5054076;28;20059;-73
2021/06/14 07:18:47;;;;;;;12.10;8.77;;;24.90;73.30;;;;;;5049381;28;20040;-72
2021/06/14 07:21:12;;;;;;;17.30;10.20;;;25.00;73.20;;;;;;5053308;28;20029;-72
2021/06/14 07:23:38;;;;;;;15.63;10.10;;;25.10;72.70;;;;;;5050474;28;20082;-81
2021/06/14 07:26:04;;;;;;;14.32;10.68;;;25.20;72.70;;;;;;5052731;28;20029;-71
2021/06/14 07:28:30;;;;;;;14.57;10.13;;;25.30;72.00;;;;;;5053116;28;20044;-72
2021/06/14 07:30:56;;;;;;;11.93;9.48;;;25.30;71.80;;;;;;5048611;28;20033;-74
2021/06/14 07:33:22;;;;;;;11.38;9.90;;;25.40;71.30;;;;;;5051995;28;20108;-73
2021/06/14 07:35:47;;;;;;;11.50;9.55;;;25.50;70.90;;;;;;5060038;28;20074;-72
2021/06/14 07:38:15;;;;;;;15.27;10.13;;;25.50;70.80;;;;;;5060474;28;20454;-73
2021/06/14 07:40:41;;;;;;;12.45;9.55;;;25.60;70.40;;;;;;5062295;28;20451;-73
2021/06/14 07:43:11;;;;;;;12.90;10.35;;;25.60;70.10;;;;;;5060007;28;20025;-72
2021/06/14 07:45:38;;;;;;;15.43;10.40;;;25.60;69.70;;;;;;5061547;28;20036;-74
2021/06/14 07:48:03;;;;;;;15.55;10.18;;;25.60;69.40;;;;;;5059148;28;20024;-72
2021/06/14 07:50:30;;;;;;;13.85;10.07;;;25.60;69.20;;;;;;5072764;28;20394;-72
2021/06/14 07:52:55;;;;;;;14.43;9.57;;;25.50;69.20;;;;;;5072620;28;20028;-77
2021/06/14 07:55:21;;;;;;;12.40;9.00;;;25.60;69.40;;;;;;5072831;28;20032;-73
2021/06/14 07:57:47;;;;;;;16.40;9.52;;;25.60;69.30;;;;;;5072757;28;20410;-72
2021/06/14 08:00:13;;;;;;;16.75;9.43;;;25.60;69.20;;;;;;5072978;28;20028;-73
2021/06/14 08:02:40;;;;;;;12.85;8.63;;;25.60;69.00;;;;;;5072858;28;20084;-73
2021/06/14 08:05:07;;;;;;;11.55;8.65;;;25.70;68.90;;;;;;5073115;28;20066;-73
2021/06/14 08:07:34;;;;;;;13.75;8.68;;;25.70;68.70;;;;;;5073231;28;20033;-73
2021/06/14 08:10:03;;;;;;;14.25;8.07;;;25.80;68.50;;;;;;5072676;28;20059;-72
2021/06/14 08:12:31;;;;;;;12.38;8.32;;;25.90;68.30;;;;;;5071772;28;20025;-72
2021/06/14 08:14:57;;;;;;;13.50;9.15;;;25.90;68.20;;;;;;5072914;28;20025;-79
2021/06/14 08:17:23;;;;;;;9.23;7.95;;;26.00;67.90;;;;;;5073324;28;20057;-72
2021/06/14 08:25:37;;;;;;;11.23;7.47;;;26.50;66.30;;;;;;5018397;28;20100;-72
2021/06/14 08:28:04;;;;;;;15.43;7.18;;;26.70;66.10;;;;;;5072539;28;20029;-72
2021/06/14 08:30:31;;;;;;;15.63;7.03;;;26.80;65.20;;;;;;5072806;28;20086;-72
2021/06/14 08:32:58;;;;;;;17.35;7.53;;;26.90;64.50;;;;;;5072926;28;20039;-72
2021/06/14 08:35:27;;;;;;;13.18;6.88;;;27.00;64.10;;;;;;5073938;28;20108;-72
2021/06/14 08:37:54;;;;;;;14.00;7.43;;;27.10;63.80;;;;;;5075496;28;20032;-71
2021/06/14 08:40:29;;;;;;;11.38;7.13;;;27.30;63.40;;;;;;5076794;28;20036;-71
2021/06/14 08:42:55;;;;;;;10.80;6.80;;;27.50;63.10;;;;;;5076484;28;20039;-71
2021/06/14 08:45:21;;;;;;;10.15;6.85;;;27.60;62.60;;;;;;5076625;28;20103;-72
2021/06/14 08:47:48;;;;;;;9.98;6.25;;;27.80;62.10;;;;;;5076595;28;20054;-72
2021/06/14 08:50:18;;;;;;;9.38;6.35;;;28.10;61.60;;;;;;5076381;28;20116;-72
2021/06/14 08:52:44;;;;;;;9.25;5.75;;;28.30;60.60;;;;;;5075371;28;20116;-72
2021/06/14 08:55:12;;;;;;;10.32;5.50;;;28.50;60.20;;;;;;5076274;28;20078;-72
2021/06/14 08:57:38;;;;;;;16.10;6.45;;;28.70;59.70;;;;;;5075708;28;20075;-72
2021/06/14 09:00:13;;;;;;;7.82;5.45;;;28.90;59.80;;;;;;5075693;28;20067;-72
2021/06/14 09:02:39;;;;;;;8.80;5.60;;;29.10;58.60;;;;;;5076111;28;20071;-72
2021/06/14 09:05:06;;;;;;;8.90;6.20;;;29.40;58.30;;;;;;5075828;28;20056;-72
2021/06/14 09:07:32;;;;;;;7.63;5.30;;;29.60;57.80;;;;;;5075836;28;20029;-72
2021/06/14 09:09:58;;;;;;;8.95;5.22;;;29.80;57.20;;;;;;5076104;28;20078;-72
2021/06/14 09:12:24;;;;;;;8.60;5.20;;;30.00;56.70;;;;;;5076209;28;20040;-73
2021/06/14 09:14:49;;;;;;;9.15;5.00;;;30.20;56.30;;;;;;5075973;28;20036;-72
2021/06/14 09:17:18;;;;;;;8.98;4.53;;;30.60;55.50;;;;;;5075933;28;20377;-71
2021/06/14 09:19:51;;;;;;;5.75;5.15;;;30.90;54.80;;;;;;5075825;28;20029;-72
2021/06/14 09:22:22;;;;;;;9.32;4.70;;;31.30;53.80;;;;;;5075911;28;20035;-72
2021/06/14 09:25:04;;;;;;;6.97;5.00;;;31.60;53.40;;;;;;5075657;28;20046;-72
2021/06/14 09:27:36;;;;;;;8.77;5.20;;;31.80;52.50;;;;;;5075540;28;20090;-72
2021/06/14 09:30:17;;;;;;;6.57;5.05;;;32.10;52.00;;;;;;5076306;28;20432;-74
2021/06/14 09:33:03;;;;;;;9.40;5.00;;;32.20;51.60;;;;;;5090404;28;20024;-72
2021/06/14 09:35:41;;;;;;;13.30;4.85;;;32.50;51.30;;;;;;5094911;28;20381;-71
2021/06/14 09:38:10;;;;;;;8.48;4.28;;;32.90;50.70;;;;;;5111758;28;20032;-72
2021/06/14 09:40:39;;;;;;;3.97;3.67;;;33.20;50.00;;;;;;5111234;28;20024;-73
2021/06/14 09:43:06;;;;;;;9.68;4.05;;;33.60;49.50;;;;;;5095452;28;20036;-73
2021/06/14 09:45:33;;;;;;;4.45;4.05;;;34.00;49.10;;;;;;5095552;28;20024;-72
2021/06/14 09:47:59;;;;;;;8.65;4.00;;;34.60;48.50;;;;;;5095084;28;20492;-72
2021/06/14 09:50:30;;;;;;;4.53;4.05;;;35.20;48.00;;;;;;5095926;28;20036;-73
2021/06/14 09:53:14;;;;;;;7.32;4.40;;;35.90;47.50;;;;;;5095732;28;20028;-72
2021/06/14 09:55:42;;;;;;;4.47;3.75;;;36.50;46.90;;;;;;5095448;28;20028;-72
2021/06/14 09:58:10;;;;;;;5.60;3.78;;;37.10;46.40;;;;;;5095378;28;20362;-74
2021/06/14 10:00:36;;;;;;;6.57;3.63;;;37.80;45.10;;;;;;5095466;28;20110;-73
2021/06/14 10:03:02;;;;;;;3.88;3.55;;;38.30;44.40;;;;;;5095201;28;20172;-73
2021/06/14 10:05:28;;;;;;;4.40;3.63;;;38.80;43.10;;;;;;5094989;28;20099;-72
2021/06/14 10:07:54;;;;;;;3.85;3.40;;;39.30;42.70;;;;;;5095413;28;20455;-73
2021/06/14 10:10:25;;;;;;;6.85;4.28;;;39.60;42.00;;;;;;5095231;28;20081;-73
2021/06/14 10:12:53;;;;;;;4.95;3.38;;;40.00;41.80;;;;;;5095032;28;20103;-72
2021/06/14 10:15:30;;;;;;;3.85;3.50;;;40.40;41.50;;;;;;5094922;28;20119;-72
2021/06/14 10:17:56;;;;;;;7.00;3.80;;;40.90;40.60;;;;;;5094876;28;20081;-73
2021/06/14 10:20:26;;;;;;;6.40;3.50;;;41.10;40.30;;;;;;5094844;28;20028;-72
2021/06/14 10:22:55;;;;;;;5.15;3.58;;;41.30;39.80;;;;;;5095264;28;20028;-73
2021/06/14 10:25:22;;;;;;;4.15;3.42;;;41.70;39.40;;;;;;5095136;28;20024;-73
2021/06/14 10:27:48;;;;;;;3.47;3.17;;;42.00;38.90;;;;;;5095013;28;20430;-72
2021/06/14 10:30:16;;;;;;;3.67;3.30;;;42.20;38.50;;;;;;5093411;28;20466;-73
2021/06/14 10:32:44;;;;;;;3.50;3.20;;;42.30;38.00;;;;;;5094738;28;20153;-71
2021/06/14 10:35:11;;;;;;;3.67;3.17;;;42.40;37.60;;;;;;5094724;28;20115;-74
2021/06/14 10:37:44;;;;;;;8.45;3.95;;;42.50;37.30;;;;;;5094919;28;20469;-73
2021/06/14 10:40:13;;;;;;;7.05;3.28;;;42.60;37.10;;;;;;5094806;28;20051;-71
2021/06/14 10:42:41;;;;;;;7.38;3.13;;;42.80;37.20;;;;;;5094950;28;20153;-72
2021/06/14 10:45:09;;;;;;;4.03;3.22;;;43.00;36.80;;;;;;5094772;28;20032;-72
2021/06/14 10:47:36;;;;;;;5.38;3.00;;;43.10;36.40;;;;;;5094497;28;20036;-72
2021/06/14 10:50:03;;;;;;;6.68;3.22;;;43.40;36.90;;;;;;5094317;28;20050;-72
2021/06/14 10:52:44;;;;;;;5.10;3.25;;;43.70;36.00;;;;;;5094493;28;20448;-72
2021/06/14 10:55:12;;;;;;;7.88;3.30;;;43.90;35.50;;;;;;5089332;28;20024;-73
2021/06/14 10:57:41;;;;;;;6.43;3.20;;;44.10;35.50;;;;;;5094200;28;20028;-73
2021/06/14 11:00:30;;;;;;;2.90;2.70;;;44.30;35.10;;;;;;5093161;28;20030;-72
2021/06/14 11:02:59;;;;;;;6.07;2.95;;;44.40;34.80;;;;;;5093476;28;20027;-73
2021/06/14 11:05:35;;;;;;;6.32;3.63;;;44.60;34.80;;;;;;5094087;28;20047;-74
2021/06/14 11:08:20;;;;;;;7.45;3.47;;;44.60;34.40;;;;;;5092858;28;20116;-71
2021/06/14 11:10:49;;;;;;;6.82;3.08;;;44.60;34.40;;;;;;5093619;28;20028;-74
2021/06/14 11:13:16;;;;;;;13.18;3.20;;;44.80;34.20;;;;;;5093926;28;20039;-73
2021/06/14 11:15:44;;;;;;;3.30;3.00;;;45.10;34.40;;;;;;5093558;28;20063;-73
2021/06/14 11:18:43;;;;;;;10.77;3.15;;;45.30;33.90;;;;;;5093842;28;20382;-74
2021/06/14 11:21:13;;;;;;;7.55;2.92;;;45.60;33.50;;;;;;5060132;28;20051;-73
2021/06/14 11:23:41;;;;;;;2.83;2.30;;;45.70;33.10;;;;;;5093670;28;20429;-74
2021/06/14 11:26:11;;;;;;;10.18;3.10;;;45.80;32.80;;;;;;5093998;28;20028;-73
2021/06/14 11:28:39;;;;;;;2.83;2.63;;;46.10;32.90;;;;;;5093759;28;20082;-73
2021/06/14 11:31:20;;;;;;;7.25;2.85;;;46.20;32.50;;;;;;5093120;28;20031;-73
2021/06/14 11:33:48;;;;;;;3.35;3.05;;;46.30;32.50;;;;;;5093657;28;20036;-73
2021/06/14 11:36:19;;;;;;;5.15;2.90;;;46.50;32.50;;;;;;5093653;28;20051;-72
2021/06/14 11:38:46;;;;;;;4.10;2.73;;;46.70;32.50;;;;;;5093004;28;20031;-72
2021/06/14 11:41:11;;;;;;;7.85;2.65;;;46.80;32.30;;;;;;5093350;28;20252;-73
2021/06/14 11:43:37;;;;;;;5.78;2.50;;;46.80;32.00;;;;;;5093529;28;20381;-73
2021/06/14 11:46:18;;;;;;;2.97;2.78;;;46.80;32.00;;;;;;5088563;28;20036;-74
2021/06/14 11:48:48;;;;;;;7.38;2.83;;;46.90;31.80;;;;;;5072147;28;20109;-73
2021/06/14 11:51:18;;;;;;;3.85;2.83;;;46.90;31.90;;;;;;5052974;28;20455;-73
2021/06/14 11:53:52;;;;;;;3.20;2.42;;;46.80;31.70;;;;;;5052813;28;20116;-72
2021/06/14 11:56:19;;;;;;;4.75;2.67;;;46.80;31.60;;;;;;5068923;28;20051;-75
2021/06/14 11:58:47;;;;;;;4.85;2.38;;;46.10;31.70;;;;;;5082447;28;20032;-72
2021/06/14 12:01:13;;;;;;;3.33;2.55;;;45.60;32.10;;;;;;5072715;28;20381;-72
2021/06/14 12:03:39;;;;;;;2.95;2.47;;;44.60;32.40;;;;;;5072697;28;20025;-73
2021/06/14 12:06:04;;;;;;;3.63;2.83;;;43.50;32.90;;;;;;5072963;28;20108;-72
2021/06/14 12:08:30;;;;;;;4.20;2.70;;;42.40;33.60;;;;;;5072975;28;20102;-72
2021/06/14 12:10:58;;;;;;;3.40;2.95;;;41.30;34.50;;;;;;5075633;28;20079;-72
2021/06/14 12:13:24;;;;;;;20.08;3.35;;;41.10;35.20;;;;;;5077077;28;20052;-73
2021/06/14 12:15:52;;;;;;;6.57;3.17;;;41.90;35.20;;;;;;5079147;28;20020;-74
2021/06/14 12:18:19;;;;;;;4.05;2.95;;;42.80;34.60;;;;;;5097253;28;20088;-73
2021/06/14 12:20:57;;;;;;;4.03;2.88;;;43.60;34.00;;;;;;5112868;28;20024;-72
2021/06/14 12:23:23;;;;;;;5.50;2.85;;;44.30;33.50;;;;;;5097275;28;20088;-72
2021/06/14 12:25:52;;;;;;;4.85;2.75;;;44.80;33.20;;;;;;5097365;28;20028;-72
2021/06/14 12:28:20;;;;;;;13.25;10.30;;;45.40;33.00;;;;;;5097148;28;20024;-72
2021/06/14 12:30:49;;;;;;;5.95;3.83;;;45.80;32.80;;;;;;5078832;28;20399;-71
2021/06/14 12:33:33;;;;;;;6.38;3.15;;;46.20;32.50;;;;;;5082189;28;20050;-72
2021/06/14 12:36:00;;;;;;;9.35;2.78;;;46.50;32.40;;;;;;5095207;28;20492;-73
2021/06/14 12:38:29;;;;;;;9.13;3.42;;;47.10;32.20;;;;;;5084527;28;20028;-73
2021/06/14 12:40:56;;;;;;;16.75;4.13;;;47.00;32.00;;;;;;5078792;28;20025;-74
2021/06/14 12:43:22;;;;;;;6.57;4.10;;;46.40;32.10;;;;;;5076460;28;20035;-72
2021/06/14 12:45:48;;;;;;;4.53;3.05;;;45.20;32.30;;;;;;5076573;28;20033;-73
2021/06/14 12:48:16;;;;;;;11.18;3.20;;;43.80;32.70;;;;;;5076262;28;20038;-72
2021/06/14 12:50:51;;;;;;;7.85;3.00;;;42.60;33.40;;;;;;5076325;28;20041;-72
2021/06/14 12:53:19;;;;;;;4.35;2.83;;;41.70;34.00;;;;;;5076216;28;20031;-73